Time;durP1;ratioP1;P1;durP2;ratioP2;P2;SDS_P1;SDS_P2;PMS_P1;PMS_P2;Temp;Humidity;BMP_temperature;BMP_pressure;BME280_temperature;BME280_humidity;BME280_pressure;Samples;Min_cycle;Max_cycle;Signal;HPM_P1;HPM_P2
2023/05/23 00:01:39;;;;;;;4.03;1.55;;;;;;;;;;5090610;28;20479;-60
2023/05/23 00:04:06;;;;;;;5.95;1.40;;;;;;;;;;5090617;28;20490;-61
2023/05/23 00:06:33;;;;;;;1.85;1.00;;;;;;;;;;5093021;28;20106;-60
2023/05/23 00:08:59;;;;;;;5.40;1.20;;;;;;;;;;5095487;28;20036;-60
2023/05/23 00:11:27;;;;;;;3.15;1.17;;;;;;;;;;5092290;28;20024;-60
2023/05/23 00:13:56;;;;;;;1.85;1.00;;;;;;;;;;5095252;28;20073;-60
2023/05/23 00:16:23;;;;;;;0.98;0.80;;;;;;;;;;5094277;28;20039;-60
2023/05/23 00:18:50;;;;;;;1.65;0.93;;;;;;;;;;5072435;28;20078;-60
2023/05/23 00:21:17;;;;;;;1.85;1.20;;;;;;;;;;5069887;28;20016;-60
2023/05/23 00:23:44;;;;;;;4.03;1.33;;;;;;;;;;5069844;28;20028;-60
2023/05/23 00:26:10;;;;;;;0.70;0.65;;;;;;;;;;5069883;28;20024;-60
2023/05/23 00:28:37;;;;;;;6.53;1.08;;;;;;;;;;5072979;28;20024;-60
2023/05/23 00:31:04;;;;;;;3.65;2.15;;;;;;;;;;5084867;28;20086;-60
2023/05/23 00:33:33;;;;;;;1.25;0.80;;;;;;;;;;5090491;28;20028;-60
2023/05/23 00:36:05;;;;;;;1.85;1.05;;;;;;;;;;5092425;28;20036;-60
2023/05/23 00:38:32;;;;;;;2.08;1.52;;;;;;;;;;5074856;28;20060;-60
2023/05/23 00:40:59;;;;;;;2.05;1.02;;;;;;;;;;5072662;28;20048;-60
2023/05/23 00:43:28;;;;;;;8.10;1.52;;;;;;;;;;5069487;28;20086;-60
2023/05/23 00:45:55;;;;;;;5.20;1.42;;;;;;;;;;5072263;28;20394;-60
2023/05/23 00:48:21;;;;;;;1.85;1.30;;;;;;;;;;5089633;28;20028;-60
2023/05/23 00:50:48;;;;;;;1.85;1.25;;;;;;;;;;5091136;28;20028;-60
2023/05/23 00:53:16;;;;;;;1.80;1.17;;;;;;;;;;5094833;28;20016;-60
2023/05/23 00:55:43;;;;;;;1.70;1.30;;;;;;;;;;5094909;28;20066;-60
2023/05/23 00:58:10;;;;;;;20.98;1.70;;;;;;;;;;5091843;28;20040;-60
2023/05/23 01:00:38;;;;;;;1.90;1.27;;;;;;;;;;5094198;28;20032;-60
2023/05/23 01:03:04;;;;;;;2.70;1.30;;;;;;;;;;5090557;28;20592;-60
2023/05/23 01:05:31;;;;;;;2.10;1.35;;;;;;;;;;5087344;28;20031;-60
2023/05/23 01:07:58;;;;;;;1.95;1.20;;;;;;;;;;5087789;28;20028;-60
2023/05/23 01:10:30;;;;;;;1.90;1.10;;;;;;;;;;5087572;28;20430;-60
2023/05/23 01:13:13;;;;;;;2.83;1.70;;;;;;;;;;5087957;28;20181;-60
2023/05/23 01:15:40;;;;;;;1.75;1.20;;;;;;;;;;5092338;28;20031;-60
2023/05/23 01:18:13;;;;;;;3.05;1.65;;;;;;;;;;5093356;28;20020;-60
2023/05/23 01:21:01;;;;;;;6.45;1.83;;;;;;;;;;5094324;28;20031;-60
2023/05/23 01:23:43;;;;;;;2.17;1.55;;;;;;;;;;5094363;28;20095;-59
2023/05/23 01:26:25;;;;;;;2.20;1.55;;;;;;;;;;5090993;28;20510;-60
2023/05/23 01:28:55;;;;;;;1.70;1.27;;;;;;;;;;5088798;28;20466;-60
2023/05/23 01:31:23;;;;;;;2.97;1.10;;;;;;;;;;5088841;28;20471;-60
2023/05/23 01:33:52;;;;;;;3.58;1.58;;;;;;;;;;5088848;28;20032;-60
2023/05/23 01:36:19;;;;;;;1.52;1.02;;;;;;;;;;5091184;28;20081;-60
2023/05/23 01:38:45;;;;;;;1.67;1.15;;;;;;;;;;5093827;28;20110;-60
2023/05/23 01:41:12;;;;;;;1.10;0.95;;;;;;;;;;5094023;28;20029;-60
2023/05/23 01:43:39;;;;;;;2.60;1.50;;;;;;;;;;5093860;28;20016;-60
2023/05/23 01:46:07;;;;;;;4.93;1.17;;;;;;;;;;5091368;28;20470;-60
2023/05/23 01:48:34;;;;;;;2.77;1.67;;;;;;;;;;5070703;28;20095;-59
2023/05/23 01:51:01;;;;;;;2.43;1.60;;;;;;;;;;5068221;28;20025;-60
2023/05/23 01:53:29;;;;;;;5.47;2.10;;;;;;;;;;5068127;28;20016;-60
2023/05/23 01:55:55;;;;;;;1.83;1.33;;;;;;;;;;5067735;28;20467;-59
2023/05/23 01:58:22;;;;;;;3.10;1.70;;;;;;;;;;5070126;28;20036;-59
2023/05/23 02:00:49;;;;;;;10.53;2.07;;;;;;;;;;5073516;28;20033;-60
2023/05/23 02:03:16;;;;;;;5.17;2.13;;;;;;;;;;5073201;28;20494;-59
2023/05/23 02:05:43;;;;;;;4.23;2.10;;;;;;;;;;5073011;28;20028;-60
2023/05/23 02:08:10;;;;;;;2.80;1.83;;;;;;;;;;5073269;28;20391;-59
2023/05/23 02:10:39;;;;;;;3.90;1.80;;;;;;;;;;5070373;28;20032;-59
2023/05/23 02:13:05;;;;;;;3.43;1.97;;;;;;;;;;5067465;28;20383;-60
2023/05/23 02:15:32;;;;;;;3.13;1.30;;;;;;;;;;5066668;28;20046;-60
2023/05/23 02:18:01;;;;;;;6.70;2.23;;;;;;;;;;5067554;28;20086;-60
2023/05/23 02:20:28;;;;;;;3.43;1.40;;;;;;;;;;5068750;28;20066;-59
2023/05/23 02:22:55;;;;;;;4.27;1.93;;;;;;;;;;5073051;28;20025;-59
2023/05/23 02:25:22;;;;;;;5.43;2.10;;;;;;;;;;5073169;28;20028;-59
2023/05/23 02:27:48;;;;;;;3.13;2.07;;;;;;;;;;5072565;28;20083;-59
2023/05/23 02:30:15;;;;;;;3.93;2.03;;;;;;;;;;5072745;28;20471;-59
2023/05/23 02:32:42;;;;;;;2.17;1.53;;;;;;;;;;5070971;28;20024;-60
2023/05/23 02:35:09;;;;;;;2.23;1.33;;;;;;;;;;5067405;28;20154;-60
2023/05/23 02:37:36;;;;;;;4.60;2.07;;;;;;;;;;5067239;28;20486;-59
2023/05/23 02:40:03;;;;;;;3.70;2.27;;;;;;;;;;5067131;28;20032;-59
2023/05/23 02:42:30;;;;;;;6.10;2.63;;;;;;;;;;5067828;28;20082;-59
2023/05/23 02:44:56;;;;;;;3.37;1.87;;;;;;;;;;5072326;28;20021;-59
2023/05/23 02:47:23;;;;;;;2.27;1.70;;;;;;;;;;5072477;28;20017;-59
2023/05/23 02:49:50;;;;;;;2.07;1.50;;;;;;;;;;5071938;28;20021;-59
2023/05/23 02:52:17;;;;;;;3.07;1.70;;;;;;;;;;5072654;28;20582;-59
2023/05/23 02:54:43;;;;;;;2.97;2.07;;;;;;;;;;5071822;28;20493;-59
2023/05/23 02:57:10;;;;;;;2.87;1.80;;;;;;;;;;5067184;28;20028;-59
2023/05/23 02:59:37;;;;;;;4.20;1.83;;;;;;;;;;5067100;28;20024;-60
2023/05/23 03:02:04;;;;;;;3.50;2.30;;;;;;;;;;5066963;28;20138;-60
2023/05/23 03:04:33;;;;;;;3.70;2.03;;;;;;;;;;5067124;28;20028;-59
2023/05/23 03:07:02;;;;;;;13.20;1.70;;;;;;;;;;5071873;28;20108;-60
2023/05/23 03:09:29;;;;;;;4.43;2.20;;;;;;;;;;5072329;28;20029;-59
2023/05/23 03:11:56;;;;;;;3.00;1.70;;;;;;;;;;5072055;28;20037;-60
2023/05/23 03:14:22;;;;;;;5.10;2.70;;;;;;;;;;5072188;28;20158;-60
2023/05/23 03:16:49;;;;;;;7.67;2.67;;;;;;;;;;5072102;28;20020;-59
2023/05/23 03:19:16;;;;;;;2.43;1.80;;;;;;;;;;5067085;28;20012;-60
2023/05/23 03:21:43;;;;;;;3.80;2.23;;;;;;;;;;5066688;28;20028;-60
2023/05/23 03:24:10;;;;;;;5.20;2.00;;;;;;;;;;5066136;28;20233;-60
2023/05/23 03:26:37;;;;;;;2.73;1.57;;;;;;;;;;5068068;28;20580;-60
2023/05/23 03:29:05;;;;;;;4.47;2.87;;;;;;;;;;5075157;28;20581;-60
2023/05/23 03:31:31;;;;;;;8.43;2.93;;;;;;;;;;5076130;28;20016;-60
2023/05/23 03:33:58;;;;;;;10.17;3.00;;;;;;;;;;5076141;28;20103;-60
2023/05/23 03:36:27;;;;;;;3.73;1.90;;;;;;;;;;5075863;28;20028;-59
2023/05/23 03:38:53;;;;;;;3.63;2.27;;;;;;;;;;5075943;28;20037;-59
2023/05/23 03:41:20;;;;;;;3.60;2.20;;;;;;;;;;5070588;28;20028;-59
2023/05/23 03:43:47;;;;;;;10.83;2.27;;;;;;;;;;5070437;28;20460;-59
2023/05/23 03:46:14;;;;;;;11.07;2.67;;;;;;;;;;5070581;28;20029;-59
2023/05/23 03:48:40;;;;;;;3.60;2.23;;;;;;;;;;5070388;28;20024;-60
2023/05/23 03:51:07;;;;;;;3.70;2.23;;;;;;;;;;5074346;28;20059;-59
2023/05/23 03:53:34;;;;;;;4.27;2.67;;;;;;;;;;5075547;28;20467;-59
2023/05/23 03:56:01;;;;;;;3.37;2.10;;;;;;;;;;5075640;28;20032;-59
2023/05/23 03:58:27;;;;;;;4.03;2.43;;;;;;;;;;5074990;28;20468;-59
2023/05/23 04:00:54;;;;;;;5.73;2.33;;;;;;;;;;5075704;28;20029;-59
2023/05/23 04:03:21;;;;;;;1.87;1.30;;;;;;;;;;5071323;28;20090;-59
2023/05/23 04:05:48;;;;;;;3.93;2.00;;;;;;;;;;5070101;28;20036;-59
2023/05/23 04:08:14;;;;;;;9.93;1.60;;;;;;;;;;5070015;28;20031;-59
2023/05/23 04:10:41;;;;;;;2.17;1.67;;;;;;;;;;5069546;28;20432;-60
2023/05/23 04:13:08;;;;;;;2.53;1.90;;;;;;;;;;5072992;28;20471;-59
2023/05/23 04:15:35;;;;;;;4.67;2.40;;;;;;;;;;5075127;28;20378;-59
2023/05/23 04:18:02;;;;;;;3.27;2.27;;;;;;;;;;5074949;28;20056;-59
2023/05/23 04:20:30;;;;;;;1.47;1.30;;;;;;;;;;5075120;28;20415;-59
2023/05/23 04:22:56;;;;;;;4.43;2.30;;;;;;;;;;5075340;28;20020;-59
2023/05/23 04:25:23;;;;;;;2.63;1.40;;;;;;;;;;5071791;28;20025;-59
2023/05/23 04:27:50;;;;;;;4.13;2.30;;;;;;;;;;5069441;28;20039;-60
2023/05/23 04:30:17;;;;;;;10.83;2.33;;;;;;;;;;5069896;28;20085;-59
2023/05/23 04:32:44;;;;;;;3.63;2.40;;;;;;;;;;5069643;28;20046;-59
2023/05/23 04:35:11;;;;;;;3.67;2.20;;;;;;;;;;5071772;28;20031;-59
2023/05/23 04:37:41;;;;;;;5.00;2.20;;;;;;;;;;5074433;28;20021;-59
2023/05/23 04:40:08;;;;;;;3.27;2.20;;;;;;;;;;5074293;28;20040;-59
2023/05/23 04:42:35;;;;;;;11.20;2.20;;;;;;;;;;5074895;28;20025;-59
2023/05/23 04:45:02;;;;;;;3.30;2.00;;;;;;;;;;5074499;28;20039;-60
2023/05/23 04:47:33;;;;;;;8.67;2.73;;;;;;;;;;5073766;28;20495;-61
2023/05/23 04:50:01;;;;;;;3.37;1.73;;;;;;;;;;5078628;28;20040;-60
2023/05/23 04:52:28;;;;;;;2.37;1.70;;;;;;;;;;5083977;28;20024;-60
2023/05/23 04:54:55;;;;;;;3.10;1.87;;;;;;;;;;5077241;28;20552;-60
2023/05/23 04:57:22;;;;;;;3.70;1.67;;;;;;;;;;5089186;28;20028;-61
2023/05/23 04:59:49;;;;;;;3.40;2.17;;;;;;;;;;5090209;28;20028;-60
2023/05/23 05:02:16;;;;;;;2.00;1.63;;;;;;;;;;5074633;28;20016;-60
2023/05/23 05:04:43;;;;;;;2.50;2.03;;;;;;;;;;5074686;28;20031;-60
2023/05/23 05:07:10;;;;;;;3.83;2.47;;;;;;;;;;5074194;28;20017;-60
2023/05/23 05:09:36;;;;;;;2.80;1.80;;;;;;;;;;5071929;28;20020;-61
2023/05/23 05:12:03;;;;;;;3.20;1.80;;;;;;;;;;5073995;28;20493;-60
2023/05/23 05:14:30;;;;;;;5.60;1.63;;;;;;;;;;5089151;28;20104;-60
2023/05/23 05:16:57;;;;;;;3.53;2.07;;;;;;;;;;5089240;28;20026;-60
2023/05/23 05:19:24;;;;;;;5.47;2.20;;;;;;;;;;5090205;28;20028;-60
2023/05/23 05:21:51;;;;;;;7.50;2.63;;;;;;;;;;5094411;28;20012;-60
2023/05/23 05:24:19;;;;;;;2.80;1.60;;;;;;;;;;5094286;28;20050;-60
2023/05/23 05:26:46;;;;;;;3.37;2.17;;;;;;;;;;5094097;28;20116;-60
2023/05/23 05:29:13;;;;;;;3.03;1.83;;;;;;;;;;5094199;28;20073;-60
2023/05/23 05:31:40;;;;;;;4.07;1.87;;;;;;;;;;5092552;28;20031;-60
2023/05/23 05:34:07;;;;;;;6.73;2.53;;;;;;;;;;5088946;28;20024;-60
2023/05/23 05:36:34;;;;;;;5.30;1.73;;;;;;;;;;5088214;28;20425;-60
2023/05/23 05:39:01;;;;;;;2.10;1.33;;;;;;;;;;5068447;28;20111;-60
2023/05/23 05:41:27;;;;;;;2.57;1.87;;;;;;;;;;5069369;28;20048;-60
2023/05/23 05:43:54;;;;;;;3.77;2.13;;;;;;;;;;5073473;28;20087;-60
2023/05/23 05:46:21;;;;;;;4.50;1.70;;;;;;;;;;5073884;28;20020;-60
2023/05/23 05:48:48;;;;;;;2.50;1.70;;;;;;;;;;5073828;28;20090;-60
2023/05/23 05:51:15;;;;;;;2.07;1.60;;;;;;;;;;5073366;28;20442;-60
2023/05/23 05:53:41;;;;;;;2.07;1.57;;;;;;;;;;5072421;28;20021;-60
2023/05/23 05:56:08;;;;;;;2.63;1.90;;;;;;;;;;5068260;28;20115;-60
2023/05/23 05:58:35;;;;;;;3.23;2.20;;;;;;;;;;5068248;28;20017;-60
2023/05/23 06:01:02;;;;;;;3.83;2.27;;;;;;;;;;5068148;28;20021;-60
2023/05/23 06:03:29;;;;;;;4.20;2.60;;;;;;;;;;5067996;28;20084;-60
2023/05/23 06:05:56;;;;;;;2.87;1.60;;;;;;;;;;5073415;28;20055;-60
2023/05/23 06:08:22;;;;;;;11.53;2.17;;;;;;;;;;5073113;28;20033;-60
2023/05/23 06:10:49;;;;;;;4.10;1.30;;;;;;;;;;5072979;28;20368;-60
2023/05/23 06:13:16;;;;;;;2.63;2.00;;;;;;;;;;5073246;28;20024;-60
2023/05/23 06:15:43;;;;;;;5.53;2.43;;;;;;;;;;5072880;28;20044;-60
2023/05/23 06:18:10;;;;;;;3.07;1.97;;;;;;;;;;5067455;28;20054;-60
2023/05/23 06:20:37;;;;;;;2.00;1.53;;;;;;;;;;5067676;28;20653;-60
2023/05/23 06:23:04;;;;;;;2.43;1.70;;;;;;;;;;5067771;28;20024;-60
2023/05/23 06:25:31;;;;;;;4.67;2.00;;;;;;;;;;5067592;28;20039;-60
2023/05/23 06:27:58;;;;;;;4.37;1.80;;;;;;;;;;5072122;28;20020;-60
2023/05/23 06:30:25;;;;;;;2.27;1.60;;;;;;;;;;5072778;28;20035;-60
2023/05/23 06:32:52;;;;;;;3.90;2.20;;;;;;;;;;5072895;28;20033;-60
2023/05/23 06:35:18;;;;;;;2.47;1.93;;;;;;;;;;5072893;28;20045;-60
2023/05/23 06:37:45;;;;;;;3.33;2.20;;;;;;;;;;5072220;28;20070;-60
2023/05/23 06:40:16;;;;;;;2.13;1.77;;;;;;;;;;5067805;28;20487;-59
2023/05/23 06:42:42;;;;;;;5.03;2.43;;;;;;;;;;5067429;28;20021;-60
2023/05/23 06:45:09;;;;;;;6.07;2.70;;;;;;;;;;5067274;28;20024;-60
2023/05/23 06:47:36;;;;;;;2.40;1.70;;;;;;;;;;5067296;28;20032;-60
2023/05/23 06:50:03;;;;;;;3.57;1.93;;;;;;;;;;5071086;28;20078;-60
2023/05/23 06:52:30;;;;;;;1.90;1.33;;;;;;;;;;5072514;28;20051;-60
2023/05/23 06:54:56;;;;;;;2.50;1.57;;;;;;;;;;5072093;28;20432;-60
2023/05/23 06:57:23;;;;;;;6.30;2.97;;;;;;;;;;5072615;28;20471;-60
2023/05/23 06:59:50;;;;;;;4.30;2.70;;;;;;;;;;5072380;28;20032;-59
2023/05/23 07:02:17;;;;;;;2.87;2.07;;;;;;;;;;5067543;28;20082;-60
2023/05/23 07:04:43;;;;;;;4.70;2.37;;;;;;;;;;5067328;28;20031;-60
2023/05/23 07:07:10;;;;;;;3.27;2.00;;;;;;;;;;5067121;28;20036;-60
2023/05/23 07:09:38;;;;;;;3.73;2.57;;;;;;;;;;5067061;28;20082;-60
2023/05/23 07:12:05;;;;;;;8.47;3.27;;;;;;;;;;5069676;28;20025;-60
2023/05/23 07:14:34;;;;;;;2.87;1.90;;;;;;;;;;5072580;28;20409;-59
2023/05/23 07:17:01;;;;;;;5.60;2.30;;;;;;;;;;5072010;28;20521;-59
2023/05/23 07:19:28;;;;;;;4.77;2.57;;;;;;;;;;5072099;28;20032;-60
2023/05/23 07:21:54;;;;;;;2.87;2.07;;;;;;;;;;5072248;28;20020;-59
2023/05/23 07:24:21;;;;;;;2.87;2.10;;;;;;;;;;5068673;28;20429;-60
2023/05/23 07:26:48;;;;;;;25.53;2.10;;;;;;;;;;5066994;28;20035;-60
2023/05/23 07:29:15;;;;;;;2.07;1.70;;;;;;;;;;5066627;28;20968;-60
2023/05/23 07:31:42;;;;;;;2.63;1.87;;;;;;;;;;5067032;28;20025;-60
2023/05/23 07:34:08;;;;;;;10.03;1.97;;;;;;;;;;5069460;28;20025;-60
2023/05/23 07:36:36;;;;;;;2.90;2.10;;;;;;;;;;5071834;28;20027;-60
2023/05/23 07:39:03;;;;;;;3.23;2.13;;;;;;;;;;5090699;28;20032;-60
2023/05/23 07:41:30;;;;;;;4.00;2.20;;;;;;;;;;5092211;28;20474;-60
2023/05/23 07:43:57;;;;;;;5.27;2.93;;;;;;;;;;5092211;28;20087;-60
2023/05/23 07:46:23;;;;;;;6.20;2.10;;;;;;;;;;5088875;28;20034;-60
2023/05/23 07:48:50;;;;;;;7.30;2.33;;;;;;;;;;5087009;28;20031;-60
2023/05/23 07:51:20;;;;;;;3.50;2.60;;;;;;;;;;5086849;28;20043;-59
2023/05/23 07:53:47;;;;;;;1.90;1.53;;;;;;;;;;5086750;28;20110;-59
2023/05/23 07:56:13;;;;;;;3.47;2.23;;;;;;;;;;5089009;28;20024;-59
2023/05/23 07:58:40;;;;;;;3.33;2.50;;;;;;;;;;5092114;28;20028;-59
2023/05/23 08:01:07;;;;;;;3.80;2.90;;;;;;;;;;5092160;28;20016;-59
2023/05/23 08:03:34;;;;;;;4.07;2.37;;;;;;;;;;5091649;28;20044;-59
2023/05/23 08:06:01;;;;;;;3.13;1.90;;;;;;;;;;5091815;28;20035;-59
2023/05/23 08:08:27;;;;;;;3.30;1.97;;;;;;;;;;5089645;28;20082;-59
2023/05/23 08:10:54;;;;;;;3.30;2.27;;;;;;;;;;5086477;28;20047;-60
2023/05/23 08:13:21;;;;;;;2.40;1.57;;;;;;;;;;5088902;28;20342;-59
2023/05/23 08:15:48;;;;;;;4.93;2.70;;;;;;;;;;5090354;28;20062;-61
2023/05/23 08:18:15;;;;;;;2.03;1.70;;;;;;;;;;5091802;28;20016;-59
2023/05/23 08:20:42;;;;;;;19.43;2.30;;;;;;;;;;5095314;28;20414;-59
2023/05/23 08:23:10;;;;;;;3.17;2.17;;;;;;;;;;5095439;28;20035;-59
2023/05/23 08:25:37;;;;;;;4.27;2.83;;;;;;;;;;5095606;28;20428;-59
2023/05/23 08:28:04;;;;;;;3.07;2.30;;;;;;;;;;5095217;28;20020;-59
2023/05/23 08:30:32;;;;;;;2.97;1.80;;;;;;;;;;5093967;28;20028;-59
2023/05/23 08:33:03;;;;;;;3.07;2.13;;;;;;;;;;5090076;28;20486;-59
2023/05/23 08:35:34;;;;;;;4.20;2.67;;;;;;;;;;5090171;28;20467;-59
2023/05/23 08:38:01;;;;;;;2.80;2.00;;;;;;;;;;5089712;28;20421;-59
2023/05/23 08:40:31;;;;;;;3.00;2.30;;;;;;;;;;5090928;28;20032;-59
2023/05/23 08:42:58;;;;;;;3.13;1.97;;;;;;;;;;5095339;28;20493;-59
2023/05/23 08:45:25;;;;;;;5.47;3.33;;;;;;;;;;5094943;28;20091;-59
2023/05/23 08:47:52;;;;;;;5.73;3.43;;;;;;;;;;5094949;28;20031;-60
2023/05/23 08:50:19;;;;;;;8.80;3.17;;;;;;;;;;5095111;28;20359;-59
2023/05/23 08:52:56;;;;;;;3.77;2.57;;;;;;;;;;5093569;28;20016;-59
2023/05/23 08:55:26;;;;;;;3.37;2.07;;;;;;;;;;5089548;28;20063;-60
2023/05/23 08:57:54;;;;;;;3.23;2.07;;;;;;;;;;5089699;28;20020;-60
2023/05/23 09:00:22;;;;;;;4.63;3.07;;;;;;;;;;5089529;28;20089;-60
2023/05/23 09:02:48;;;;;;;13.20;3.57;;;;;;;;;;5090427;28;20027;-59
2023/05/23 09:05:15;;;;;;;4.43;3.17;;;;;;;;;;5094652;28;20020;-59
2023/05/23 09:07:43;;;;;;;6.87;3.33;;;;;;;;;;5094324;28;20028;-60
2023/05/23 09:10:11;;;;;;;5.03;2.87;;;;;;;;;;5094639;28;20024;-59
2023/05/23 09:12:37;;;;;;;3.33;2.40;;;;;;;;;;5094540;28;20024;-59
2023/05/23 09:15:05;;;;;;;2.73;2.43;;;;;;;;;;5093281;28;20024;-59
2023/05/23 09:17:39;;;;;;;4.20;3.23;;;;;;;;;;5089206;28;20046;-59
2023/05/23 09:20:13;;;;;;;4.90;2.63;;;;;;;;;;5088955;28;20029;-59
2023/05/23 09:22:40;;;;;;;3.47;2.30;;;;;;;;;;5088942;28;20031;-60
2023/05/23 09:25:07;;;;;;;6.00;2.87;;;;;;;;;;5089741;28;20529;-59
2023/05/23 09:27:35;;;;;;;6.50;3.60;;;;;;;;;;5094297;28;20020;-60
2023/05/23 09:30:08;;;;;;;6.67;3.07;;;;;;;;;;5094349;28;20031;-59
2023/05/23 09:32:35;;;;;;;3.57;2.37;;;;;;;;;;5094226;28;20024;-59
2023/05/23 09:35:05;;;;;;;3.87;2.90;;;;;;;;;;5094251;28;20053;-59
2023/05/23 09:37:45;;;;;;;5.53;3.57;;;;;;;;;;5091886;28;20024;-60
2023/05/23 09:40:13;;;;;;;8.63;3.20;;;;;;;;;;5088763;28;20082;-59
2023/05/23 09:42:44;;;;;;;5.17;3.63;;;;;;;;;;5088824;28;20024;-59
2023/05/23 09:45:11;;;;;;;7.47;3.50;;;;;;;;;;5088943;28;20028;-59
2023/05/23 09:47:38;;;;;;;5.30;2.83;;;;;;;;;;5090364;28;20021;-59
2023/05/23 09:50:07;;;;;;;2.97;2.07;;;;;;;;;;5093705;28;20020;-59
2023/05/23 09:52:37;;;;;;;2.97;2.10;;;;;;;;;;5093908;28;20028;-59
2023/05/23 09:55:05;;;;;;;8.27;4.13;;;;;;;;;;5093583;28;20020;-59
2023/05/23 09:57:36;;;;;;;4.50;2.80;;;;;;;;;;5093835;28;20035;-59
2023/05/23 10:00:13;;;;;;;4.33;2.97;;;;;;;;;;5091609;28;20032;-59
2023/05/23 10:02:58;;;;;;;3.80;2.87;;;;;;;;;;5088111;28;20036;-60
2023/05/23 10:05:33;;;;;;;4.28;3.03;;;;;;;;;;5088360;28;20374;-59
2023/05/23 10:08:01;;;;;;;3.45;2.78;;;;;;;;;;5088405;28;20423;-59
2023/05/23 10:10:33;;;;;;;6.03;4.23;;;;;;;;;;5090851;28;20041;-60
2023/05/23 10:13:04;;;;;;;1.93;1.73;;;;;;;;;;5093621;28;20035;-59
2023/05/23 10:15:35;;;;;;;6.57;3.83;;;;;;;;;;5093459;28;20020;-59
2023/05/23 10:18:03;;;;;;;3.20;2.40;;;;;;;;;;5093122;28;20471;-59
2023/05/23 10:20:31;;;;;;;6.93;3.67;;;;;;;;;;5093161;28;20024;-60
2023/05/23 10:23:04;;;;;;;3.30;2.70;;;;;;;;;;5089785;28;20028;-59
2023/05/23 10:25:30;;;;;;;4.67;3.00;;;;;;;;;;5087787;28;20020;-59
2023/05/23 10:27:58;;;;;;;5.23;2.50;;;;;;;;;;5087614;28;20021;-59
2023/05/23 10:30:26;;;;;;;4.37;2.07;;;;;;;;;;5087951;28;20049;-59
2023/05/23 10:32:54;;;;;;;1.90;1.43;;;;;;;;;;5090497;28;20024;-59
2023/05/23 10:35:39;;;;;;;4.90;2.60;;;;;;;;;;5092736;28;20054;-59
2023/05/23 10:38:24;;;;;;;12.45;2.75;;;;;;;;;;5092452;28;20108;-59
2023/05/23 10:40:57;;;;;;;3.90;2.15;;;;;;;;;;5093047;28;20418;-59
2023/05/23 10:43:27;;;;;;;3.80;2.60;;;;;;;;;;5093056;28;20074;-59
2023/05/23 10:45:54;;;;;;;3.60;2.60;;;;;;;;;;5087806;28;20020;-59
2023/05/23 10:48:34;;;;;;;2.67;2.03;;;;;;;;;;5087237;28;20028;-60
2023/05/23 10:51:05;;;;;;;2.93;1.83;;;;;;;;;;5087516;28;20023;-59
2023/05/23 10:53:32;;;;;;;5.23;2.63;;;;;;;;;;5087361;28;20021;-59
2023/05/23 10:55:59;;;;;;;5.67;2.47;;;;;;;;;;5092185;28;20077;-59
2023/05/23 10:58:29;;;;;;;3.93;2.40;;;;;;;;;;5092706;28;20504;-59
2023/05/23 11:00:57;;;;;;;2.50;1.87;;;;;;;;;;5092246;28;20107;-59
2023/05/23 11:03:42;;;;;;;4.00;1.90;;;;;;;;;;5092355;28;20031;-59
2023/05/23 11:06:28;;;;;;;3.05;2.22;;;;;;;;;;5092232;28;20027;-60
2023/05/23 11:09:02;;;;;;;3.00;1.80;;;;;;;;;;5086899;28;20111;-60
2023/05/23 11:11:49;;;;;;;3.55;2.38;;;;;;;;;;5087267;28;20042;-59
2023/05/23 11:14:16;;;;;;;3.17;2.20;;;;;;;;;;5070415;28;20364;-59
2023/05/23 11:16:45;;;;;;;3.30;2.40;;;;;;;;;;5088674;28;20024;-59
2023/05/23 11:19:21;;;;;;;2.67;1.90;;;;;;;;;;5091653;28;20032;-59
2023/05/23 11:21:55;;;;;;;4.33;2.00;;;;;;;;;;5092448;28;20069;-59
2023/05/23 11:24:22;;;;;;;1.73;1.40;;;;;;;;;;5092470;28;20036;-59
2023/05/23 11:26:59;;;;;;;4.57;2.03;;;;;;;;;;5092360;28;20028;-59
2023/05/23 11:29:27;;;;;;;5.03;2.30;;;;;;;;;;5089326;28;20016;-59
2023/05/23 11:31:55;;;;;;;2.53;1.60;;;;;;;;;;5087349;28;20534;-59
2023/05/23 11:34:22;;;;;;;3.07;1.50;;;;;;;;;;5086938;28;20031;-60
2023/05/23 11:36:52;;;;;;;5.13;2.13;;;;;;;;;;5086973;28;20404;-59
2023/05/23 11:39:20;;;;;;;3.33;1.80;;;;;;;;;;5088495;28;20114;-59
2023/05/23 11:41:50;;;;;;;2.23;1.70;;;;;;;;;;5092317;28;20428;-59
2023/05/23 11:44:17;;;;;;;3.13;1.73;;;;;;;;;;5092213;28;20107;-59
2023/05/23 11:46:59;;;;;;;2.10;1.37;;;;;;;;;;5092039;28;20024;-59
2023/05/23 11:49:27;;;;;;;4.87;2.17;;;;;;;;;;5096216;28;20020;-59
2023/05/23 11:51:54;;;;;;;2.00;1.63;;;;;;;;;;5093198;28;20513;-59
2023/05/23 11:54:25;;;;;;;2.53;1.23;;;;;;;;;;5090446;28;20035;-59
2023/05/23 11:56:52;;;;;;;5.20;2.73;;;;;;;;;;5090195;28;20387;-59
2023/05/23 11:59:19;;;;;;;2.60;1.73;;;;;;;;;;5090848;28;20032;-59
2023/05/23 12:01:46;;;;;;;1.00;0.80;;;;;;;;;;5093000;28;20482;-59
2023/05/23 12:04:12;;;;;;;3.70;2.03;;;;;;;;;;5095908;28;20031;-59
2023/05/23 12:06:40;;;;;;;3.13;2.43;;;;;;;;;;5095805;28;20099;-59
2023/05/23 12:09:07;;;;;;;4.47;2.90;;;;;;;;;;5095594;28;20085;-59
2023/05/23 12:11:37;;;;;;;2.93;2.13;;;;;;;;;;5095474;28;20070;-59
2023/05/23 12:14:05;;;;;;;3.97;2.87;;;;;;;;;;5093101;28;20073;-59
2023/05/23 12:16:32;;;;;;;9.63;2.97;;;;;;;;;;5090418;28;20046;-59
2023/05/23 12:19:00;;;;;;;4.43;2.33;;;;;;;;;;5090264;28;20876;-59
2023/05/23 12:21:30;;;;;;;7.37;2.90;;;;;;;;;;5090390;28;20024;-59
2023/05/23 12:23:56;;;;;;;7.03;2.87;;;;;;;;;;5092370;28;20375;-59
2023/05/23 12:26:23;;;;;;;3.30;2.40;;;;;;;;;;5095282;28;20413;-59
2023/05/23 12:28:50;;;;;;;5.90;2.20;;;;;;;;;;5095017;28;20027;-59
2023/05/23 12:31:18;;;;;;;3.90;2.23;;;;;;;;;;5095433;28;20539;-59
2023/05/23 12:33:46;;;;;;;3.50;2.63;;;;;;;;;;5095176;28;20501;-59
2023/05/23 12:36:21;;;;;;;2.37;1.90;;;;;;;;;;5092668;28;20440;-59
2023/05/23 12:38:48;;;;;;;4.07;2.60;;;;;;;;;;5089944;28;20024;-60
2023/05/23 12:41:19;;;;;;;3.83;2.63;;;;;;;;;;5089517;28;20028;-60
2023/05/23 12:43:53;;;;;;;10.77;2.43;;;;;;;;;;5090074;28;20028;-59
2023/05/23 12:46:23;;;;;;;3.73;2.57;;;;;;;;;;5092157;28;20470;-59
2023/05/23 12:48:50;;;;;;;15.23;7.17;;;;;;;;;;5095166;28;20020;-59
2023/05/23 12:51:17;;;;;;;6.50;5.70;;;;;;;;;;5094924;28;20043;-59
2023/05/23 12:53:44;;;;;;;11.33;5.83;;;;;;;;;;5094979;28;20032;-59
2023/05/23 12:56:13;;;;;;;7.07;5.87;;;;;;;;;;5094720;28;20374;-60
2023/05/23 12:58:40;;;;;;;7.30;4.83;;;;;;;;;;5091635;28;20454;-59
2023/05/23 13:01:07;;;;;;;7.17;5.43;;;;;;;;;;5088882;28;20020;-59
2023/05/23 13:03:34;;;;;;;7.87;5.07;;;;;;;;;;5089347;28;20024;-59
2023/05/23 13:06:01;;;;;;;6.73;5.07;;;;;;;;;;5089473;28;20025;-60
2023/05/23 13:08:28;;;;;;;7.40;5.60;;;;;;;;;;5091328;28;20035;-60
2023/05/23 13:10:55;;;;;;;41.03;7.17;;;;;;;;;;5094081;28;20035;-59
2023/05/23 13:13:22;;;;;;;10.80;7.40;;;;;;;;;;5094378;28;20028;-60
2023/05/23 13:15:49;;;;;;;22.37;8.90;;;;;;;;;;5094433;28;20031;-59
2023/05/23 13:18:15;;;;;;;8.53;5.50;;;;;;;;;;5094429;28;20105;-59
2023/05/23 13:20:42;;;;;;;9.23;5.73;;;;;;;;;;5091794;28;20406;-60
2023/05/23 13:23:09;;;;;;;21.97;8.13;;;;;;;;;;5089170;28;20808;-58
2023/05/23 13:25:36;;;;;;;9.80;6.27;;;;;;;;;;5088923;28;20035;-59
2023/05/23 13:28:02;;;;;;;11.67;6.70;;;;;;;;;;5088690;28;20028;-59
2023/05/23 13:30:29;;;;;;;7.13;5.03;;;;;;;;;;5090278;28;20360;-59
2023/05/23 13:32:56;;;;;;;10.80;5.13;;;;;;;;;;5094144;28;20107;-59
2023/05/23 13:35:23;;;;;;;15.50;6.83;;;;;;;;;;5094218;28;20085;-58
2023/05/23 13:37:50;;;;;;;11.67;7.83;;;;;;;;;;5093749;28;20089;-59
2023/05/23 13:40:17;;;;;;;8.37;5.97;;;;;;;;;;5093671;28;20486;-59
2023/05/23 13:42:45;;;;;;;7.47;5.53;;;;;;;;;;5092175;28;20036;-59
2023/05/23 13:45:11;;;;;;;12.50;6.03;;;;;;;;;;5088177;28;20036;-59
2023/05/23 13:47:38;;;;;;;7.87;6.13;;;;;;;;;;5088763;28;20027;-59
2023/05/23 13:50:06;;;;;;;14.83;6.33;;;;;;;;;;5088736;28;20494;-59
2023/05/23 13:52:32;;;;;;;9.77;5.77;;;;;;;;;;5089495;28;20387;-59
2023/05/23 13:55:00;;;;;;;5.53;4.37;;;;;;;;;;5093503;28;20421;-59
2023/05/23 13:57:27;;;;;;;7.57;4.43;;;;;;;;;;5093702;28;20064;-59
2023/05/23 13:59:54;;;;;;;6.63;4.70;;;;;;;;;;5093538;28;20051;-59
2023/05/23 14:02:21;;;;;;;8.87;5.23;;;;;;;;;;5093202;28;20099;-59
2023/05/23 14:04:51;;;;;;;8.53;3.87;;;;;;;;;;5092130;28;20020;-59
2023/05/23 14:07:20;;;;;;;5.27;3.00;;;;;;;;;;5088268;28;20020;-60
2023/05/23 14:09:47;;;;;;;5.23;3.50;;;;;;;;;;5088301;28;20024;-59
2023/05/23 14:12:14;;;;;;;4.93;3.07;;;;;;;;;;5088017;28;20081;-59
2023/05/23 14:14:41;;;;;;;4.27;3.07;;;;;;;;;;5088788;28;20471;-59
2023/05/23 14:17:07;;;;;;;4.70;3.57;;;;;;;;;;5092715;28;20028;-59
2023/05/23 14:19:35;;;;;;;3.87;3.03;;;;;;;;;;5093401;28;20158;-59
2023/05/23 14:22:02;;;;;;;4.37;2.97;;;;;;;;;;5093266;28;20028;-59
2023/05/23 14:24:28;;;;;;;4.83;3.30;;;;;;;;;;5093142;28;20031;-59
2023/05/23 14:26:55;;;;;;;4.97;3.80;;;;;;;;;;5092322;28;20020;-59
2023/05/23 14:29:22;;;;;;;8.63;4.10;;;;;;;;;;5087707;28;20024;-59
2023/05/23 14:31:49;;;;;;;9.23;5.70;;;;;;;;;;5087992;28;20482;-59
2023/05/23 14:34:16;;;;;;;6.03;3.70;;;;;;;;;;5087478;28;20081;-59
2023/05/23 14:36:43;;;;;;;6.03;4.90;;;;;;;;;;5087795;28;20028;-59
2023/05/23 14:39:10;;;;;;;7.97;5.47;;;;;;;;;;5092903;28;20028;-61
2023/05/23 14:41:37;;;;;;;7.90;5.57;;;;;;;;;;5093010;28;20024;-60
2023/05/23 14:44:04;;;;;;;10.13;5.83;;;;;;;;;;5092715;28;20031;-59
2023/05/23 14:46:30;;;;;;;8.83;5.33;;;;;;;;;;5092564;28;20032;-59
2023/05/23 14:48:57;;;;;;;6.60;5.37;;;;;;;;;;5092476;28;20012;-60